createdAt,value
2018-02-16T00:00:16.942Z,1013.07
2018-02-16T00:01:16.919Z,1013.11
2018-02-16T00:02:16.888Z,1013.09
2018-02-16T00:03:16.925Z,1013.11
2018-02-16T00:04:16.841Z,1013.14
2018-02-16T00:05:16.813Z,1013.16
2018-02-16T00:06:16.786Z,1013.16
2018-02-16T00:07:16.764Z,1013.16
2018-02-16T00:08:16.739Z,1013.18
2018-02-16T00:09:16.726Z,1013.16
2018-02-16T00:10:16.701Z,1013.19
2018-02-16T00:11:16.664Z,1013.21
2018-02-16T00:12:16.640Z,1013.23
2018-02-16T00:13:16.613Z,1013.26
2018-02-16T00:14:16.598Z,1013.25
2018-02-16T00:15:16.555Z,1013.27
2018-02-16T00:16:16.538Z,1013.34
2018-02-16T00:17:16.513Z,1013.28
2018-02-16T00:18:16.483Z,1013.31
2018-02-16T00:19:16.475Z,1013.30
2018-02-16T00:20:16.432Z,1013.33
2018-02-16T00:21:16.412Z,1013.33
2018-02-16T00:22:16.394Z,1013.33
2018-02-16T00:23:16.377Z,1013.34
2018-02-16T00:24:16.354Z,1013.34
2018-02-16T00:25:16.311Z,1013.40
2018-02-16T00:26:16.286Z,1013.38
2018-02-16T00:27:16.261Z,1013.38
2018-02-16T00:28:16.229Z,1013.38
2018-02-16T00:29:16.211Z,1013.38
2018-02-16T00:30:16.182Z,1013.43
2018-02-16T00:31:16.156Z,1013.47
2018-02-16T00:32:16.131Z,1013.43
2018-02-16T00:33:16.116Z,1013.46
2018-02-16T00:34:16.081Z,1013.46
2018-02-16T00:35:16.060Z,1013.48
2018-02-16T00:36:16.047Z,1013.48
2018-02-16T00:37:16.006Z,1013.44
2018-02-16T00:38:15.987Z,1013.49
2018-02-16T00:39:15.957Z,1013.50
2018-02-16T00:40:15.928Z,1013.52
2018-02-16T00:41:15.919Z,1013.53
2018-02-16T00:42:15.880Z,1013.51
2018-02-16T00:43:15.869Z,1013.53
2018-02-16T00:44:15.829Z,1013.56
2018-02-16T00:45:15.800Z,1013.56
2018-02-16T00:46:15.778Z,1013.58
2018-02-16T00:47:15.751Z,1013.57
2018-02-16T00:48:15.725Z,1013.57
2018-02-16T00:49:15.698Z,1013.57
2018-02-16T00:50:15.679Z,1013.56
2018-02-16T00:51:15.684Z,1013.60
2018-02-16T00:52:15.674Z,1013.62
2018-02-16T00:53:15.596Z,1013.59
2018-02-16T00:54:15.582Z,1013.59
2018-02-16T00:55:15.553Z,1013.61
2018-02-16T00:56:15.542Z,1013.62
2018-02-16T00:57:15.502Z,1013.62
2018-02-16T00:58:15.475Z,1013.61
2018-02-16T00:59:15.447Z,1013.64
2018-02-16T01:00:15.426Z,1013.63
2018-02-16T01:01:15.397Z,1013.63
2018-02-16T01:02:15.372Z,1013.63
2018-02-16T01:03:15.346Z,1013.64
2018-02-16T01:04:15.336Z,1013.66
2018-02-16T01:05:15.297Z,1013.65
2018-02-16T01:06:15.297Z,1013.66
2018-02-16T01:07:15.258Z,1013.66
2018-02-16T01:08:15.236Z,1013.69
2018-02-16T01:09:15.199Z,1013.64
2018-02-16T01:10:15.172Z,1013.66
2018-02-16T01:11:15.148Z,1013.66
2018-02-16T01:12:15.116Z,1013.70
2018-02-16T01:13:15.098Z,1013.71
2018-02-16T01:14:15.070Z,1013.66
2018-02-16T01:15:15.040Z,1013.70
2018-02-16T01:16:15.021Z,1013.72
2018-02-16T01:17:15.012Z,1013.70
2018-02-16T01:18:14.972Z,1013.71
2018-02-16T01:19:14.947Z,1013.74
2018-02-16T01:20:14.925Z,1013.69
2018-02-16T01:21:14.945Z,1013.72
2018-02-16T01:22:14.861Z,1013.76
2018-02-16T01:23:14.838Z,1013.79
2018-02-16T01:24:14.816Z,1013.75
2018-02-16T01:25:14.806Z,1013.74
2018-02-16T01:26:14.762Z,1013.75
2018-02-16T01:27:14.740Z,1013.80
2018-02-16T01:28:14.712Z,1013.79
2018-02-16T01:29:14.693Z,1013.79
2018-02-16T01:30:14.671Z,1013.82
2018-02-16T01:31:14.635Z,1013.84
2018-02-16T01:32:14.646Z,1013.85
2018-02-16T01:33:14.609Z,1013.84
2018-02-16T01:34:14.566Z,1013.90
2018-02-16T01:35:14.535Z,1013.86
2018-02-16T01:36:14.518Z,1013.90
2018-02-16T01:37:14.507Z,1013.89
2018-02-16T01:38:14.465Z,1013.89
2018-02-16T01:39:14.432Z,1013.91
2018-02-16T01:40:14.409Z,1013.93
2018-02-16T01:41:14.388Z,1013.91
2018-02-16T01:42:14.371Z,1013.90
2018-02-16T01:43:14.333Z,1013.93
2018-02-16T01:44:14.310Z,1013.88
2018-02-16T01:45:14.279Z,1013.91
2018-02-16T01:46:14.262Z,1013.92
2018-02-16T01:47:14.234Z,1013.90
2018-02-16T01:48:14.206Z,1013.90
2018-02-16T01:49:14.204Z,1013.89
2018-02-16T01:50:14.156Z,1013.86
2018-02-16T01:51:14.176Z,1013.89
2018-02-16T01:52:14.107Z,1013.89
2018-02-16T01:53:14.094Z,1013.87
2018-02-16T01:54:14.069Z,1013.82
2018-02-16T01:55:14.040Z,1013.82
2018-02-16T01:56:14.002Z,1013.86
2018-02-16T01:57:13.983Z,1013.87
2018-02-16T01:58:13.954Z,1013.91
2018-02-16T01:59:13.955Z,1013.93
2018-02-16T02:00:13.904Z,1013.94
2018-02-16T02:01:13.892Z,1013.96
2018-02-16T02:02:13.879Z,1014.03
2018-02-16T02:03:13.834Z,1014.06
2018-02-16T02:04:13.802Z,1014.10
2018-02-16T02:05:13.792Z,1014.10
2018-02-16T02:06:13.754Z,1014.06
2018-02-16T02:07:13.725Z,1014.05
2018-02-16T02:08:13.698Z,1014.11
2018-02-16T02:09:13.675Z,1014.13
2018-02-16T02:10:13.652Z,1014.06
2018-02-16T02:11:13.623Z,1014.07
2018-02-16T02:12:13.601Z,1014.12
2018-02-16T02:13:13.576Z,1014.08
2018-02-16T02:14:13.548Z,1014.16
2018-02-16T02:15:13.517Z,1014.19
2018-02-16T02:16:13.494Z,1014.21
2018-02-16T02:17:13.470Z,1014.21
2018-02-16T02:18:13.457Z,1014.19
2018-02-16T02:19:13.440Z,1014.28
2018-02-16T02:20:13.394Z,1014.19
2018-02-16T02:21:13.367Z,1014.21
2018-02-16T02:22:13.347Z,1014.22
2018-02-16T02:23:13.315Z,1014.25
2018-02-16T02:24:13.361Z,1014.26
2018-02-16T02:25:13.285Z,1014.25
2018-02-16T02:26:13.238Z,1014.24
2018-02-16T02:27:13.213Z,1014.28
2018-02-16T02:28:13.191Z,1014.24
2018-02-16T02:29:13.170Z,1014.26
2018-02-16T02:30:13.153Z,1014.27
2018-02-16T02:31:13.138Z,1014.30
2018-02-16T02:32:13.093Z,1014.26
2018-02-16T02:33:13.063Z,1014.31
2018-02-16T02:34:13.046Z,1014.32
2018-02-16T02:35:13.013Z,1014.34
2018-02-16T02:36:12.998Z,1014.32
2018-02-16T02:37:12.983Z,1014.32
2018-02-16T02:38:12.940Z,1014.32
2018-02-16T02:39:12.909Z,1014.34
2018-02-16T02:40:12.895Z,1014.34
2018-02-16T02:41:12.863Z,1014.36
2018-02-16T02:42:12.852Z,1014.34
2018-02-16T02:43:12.814Z,1014.36
2018-02-16T02:44:12.781Z,1014.33
2018-02-16T02:45:12.776Z,1014.38
2018-02-16T02:46:12.772Z,1014.37
2018-02-16T02:47:12.712Z,1014.36
2018-02-16T02:48:12.685Z,1014.41
2018-02-16T02:49:12.661Z,1014.42
2018-02-16T02:50:12.633Z,1014.41
2018-02-16T02:51:12.608Z,1014.46
2018-02-16T02:52:12.581Z,1014.46
2018-02-16T02:53:12.570Z,1014.47
2018-02-16T02:54:12.558Z,1014.48
2018-02-16T02:55:12.502Z,1014.47
2018-02-16T02:56:12.494Z,1014.47
2018-02-16T02:57:12.472Z,1014.55
2018-02-16T02:58:12.433Z,1014.54
2018-02-16T02:59:12.411Z,1014.53
2018-02-16T03:00:12.388Z,1014.54
2018-02-16T03:01:12.360Z,1014.58
2018-02-16T03:02:12.334Z,1014.55
2018-02-16T03:03:12.296Z,1014.57
2018-02-16T03:04:12.284Z,1014.59
2018-02-16T03:05:12.250Z,1014.57
2018-02-16T03:06:12.225Z,1014.60
2018-02-16T03:07:12.203Z,1014.64
2018-02-16T03:08:12.175Z,1014.65
2018-02-16T03:09:12.153Z,1014.66
2018-02-16T03:10:12.123Z,1014.71
2018-02-16T03:11:12.095Z,1014.71
2018-02-16T03:12:12.075Z,1014.71
2018-02-16T03:13:12.071Z,1014.73
2018-02-16T03:14:12.023Z,1014.78
2018-02-16T03:15:12.013Z,1014.78
2018-02-16T03:16:11.985Z,1014.76
2018-02-16T03:17:11.960Z,1014.82
2018-02-16T03:18:11.928Z,1014.83
2018-02-16T03:19:11.903Z,1014.79
2018-02-16T03:20:11.875Z,1014.78
2018-02-16T03:21:11.841Z,1014.81
2018-02-16T03:22:11.843Z,1014.82
2018-02-16T03:23:11.800Z,1014.87
2018-02-16T03:24:11.769Z,1014.89
2018-02-16T03:25:11.748Z,1014.91
2018-02-16T03:26:11.718Z,1014.91
2018-02-16T03:27:11.723Z,1014.94
2018-02-16T03:28:11.669Z,1014.94
2018-02-16T03:29:11.643Z,1014.97
2018-02-16T03:30:11.620Z,1014.99
2018-02-16T03:31:11.609Z,1015.00
2018-02-16T03:32:11.568Z,1014.96
2018-02-16T03:33:11.543Z,1015.04
2018-02-16T03:34:11.515Z,1015.07
2018-02-16T03:35:11.508Z,1015.09
2018-02-16T03:36:11.464Z,1015.08
2018-02-16T03:37:11.437Z,1015.08
2018-02-16T03:38:11.412Z,1015.11
2018-02-16T03:39:11.391Z,1015.15
2018-02-16T03:40:11.362Z,1015.16
2018-02-16T03:41:11.350Z,1015.13
2018-02-16T03:42:11.316Z,1015.15
2018-02-16T03:43:11.282Z,1015.18
2018-02-16T03:44:11.259Z,1015.18
2018-02-16T03:45:11.244Z,1015.20
2018-02-16T03:46:11.211Z,1015.19
2018-02-16T03:47:11.187Z,1015.21
2018-02-16T03:48:11.167Z,1015.21
2018-02-16T03:49:11.145Z,1015.21
2018-02-16T03:50:11.112Z,1015.22
2018-02-16T03:51:11.105Z,1015.24
2018-02-16T03:52:11.062Z,1015.23
2018-02-16T03:53:11.034Z,1015.24
2018-02-16T03:54:11.020Z,1015.24
2018-02-16T03:55:10.985Z,1015.26
2018-02-16T03:56:10.954Z,1015.28
2018-02-16T03:57:10.959Z,1015.28
2018-02-16T03:58:10.933Z,1015.26
2018-02-16T03:59:10.878Z,1015.27
2018-02-16T04:00:10.872Z,1015.30
2018-02-16T04:01:10.832Z,1015.29
2018-02-16T04:02:10.807Z,1015.33
2018-02-16T04:03:10.792Z,1015.33
2018-02-16T04:04:10.752Z,1015.30
2018-02-16T04:05:10.726Z,1015.30
2018-02-16T04:06:10.714Z,1015.29
2018-02-16T04:07:10.682Z,1015.30
2018-02-16T04:08:10.654Z,1015.33
2018-02-16T04:09:10.632Z,1015.34
2018-02-16T04:10:10.603Z,1015.36
2018-02-16T04:11:10.579Z,1015.37
2018-02-16T04:12:10.551Z,1015.39
2018-02-16T04:13:10.529Z,1015.39
2018-02-16T04:14:10.539Z,1015.42
2018-02-16T04:15:10.475Z,1015.38
2018-02-16T04:16:10.453Z,1015.39
2018-02-16T04:17:10.427Z,1015.40
2018-02-16T04:18:10.422Z,1015.42
2018-02-16T04:19:10.375Z,1015.44
2018-02-16T04:20:10.368Z,1015.44
2018-02-16T04:21:10.324Z,1015.45
2018-02-16T04:22:10.303Z,1015.45
2018-02-16T04:23:10.272Z,1015.45
2018-02-16T04:24:10.249Z,1015.47
2018-02-16T04:25:10.230Z,1015.45
2018-02-16T04:26:10.204Z,1015.50
2018-02-16T04:27:10.188Z,1015.46
2018-02-16T04:28:10.144Z,1015.51
2018-02-16T04:29:10.123Z,1015.51
2018-02-16T04:30:10.101Z,1015.52
2018-02-16T04:31:10.072Z,1015.53
2018-02-16T04:32:10.040Z,1015.53
2018-02-16T04:33:10.040Z,1015.58
2018-02-16T04:34:10.035Z,1015.58
2018-02-16T04:35:09.989Z,1015.57
2018-02-16T04:36:09.944Z,1015.62
2018-02-16T04:37:09.917Z,1015.63
2018-02-16T04:38:09.924Z,1015.59
2018-02-16T04:39:09.866Z,1015.58
2018-02-16T04:40:09.842Z,1015.62
2018-02-16T04:41:09.820Z,1015.58
2018-02-16T04:42:09.806Z,1015.61
2018-02-16T04:43:09.765Z,1015.59
2018-02-16T04:44:09.738Z,1015.58
2018-02-16T04:45:09.730Z,1015.59
2018-02-16T04:46:09.723Z,1015.58
2018-02-16T04:47:09.666Z,1015.57
2018-02-16T04:48:09.642Z,1015.63
2018-02-16T04:49:09.625Z,1015.64
2018-02-16T04:50:09.591Z,1015.63
2018-02-16T04:51:09.565Z,1015.69
2018-02-16T04:52:09.537Z,1015.67
2018-02-16T04:53:09.515Z,1015.68
2018-02-16T04:54:09.491Z,1015.68
2018-02-16T04:55:09.461Z,1015.70
2018-02-16T04:56:09.436Z,1015.71
2018-02-16T04:57:09.410Z,1015.73
2018-02-16T04:58:09.395Z,1015.77
2018-02-16T04:59:09.357Z,1015.77
2018-02-16T05:00:09.610Z,1015.78
2018-02-16T05:01:09.367Z,1015.77
2018-02-16T05:02:09.285Z,1015.80
2018-02-16T05:03:09.266Z,1015.81
2018-02-16T05:04:09.235Z,1015.81
2018-02-16T05:05:09.206Z,1015.81
2018-02-16T05:06:09.187Z,1015.84
2018-02-16T05:07:09.159Z,1015.85
2018-02-16T05:08:09.133Z,1015.89
2018-02-16T05:09:09.105Z,1015.84
2018-02-16T05:10:09.086Z,1015.89
2018-02-16T05:11:09.057Z,1015.91
2018-02-16T05:12:09.050Z,1015.90
2018-02-16T05:13:09.007Z,1015.92
2018-02-16T05:14:08.975Z,1015.96
2018-02-16T05:15:08.957Z,1015.95
2018-02-16T05:16:08.926Z,1015.98
2018-02-16T05:17:08.911Z,1015.99
2018-02-16T05:18:08.878Z,1015.99
2018-02-16T05:19:08.851Z,1016.00
2018-02-16T05:20:08.831Z,1016.00
2018-02-16T05:21:08.808Z,1016.04
2018-02-16T05:22:08.778Z,1016.03
2018-02-16T05:23:08.750Z,1016.01
2018-02-16T05:24:08.726Z,1016.04
2018-02-16T05:25:08.736Z,1016.03
2018-02-16T05:26:08.674Z,1016.04
2018-02-16T05:27:08.649Z,1016.07
2018-02-16T05:28:08.626Z,1016.10
2018-02-16T05:29:08.609Z,1016.11
2018-02-16T05:30:08.578Z,1016.12
2018-02-16T05:31:08.570Z,1016.14
2018-02-16T05:32:08.521Z,1016.11
2018-02-16T05:33:08.500Z,1016.18
2018-02-16T05:34:08.490Z,1016.21
2018-02-16T05:35:08.462Z,1016.21
2018-02-16T05:36:08.418Z,1016.28
2018-02-16T05:37:08.398Z,1016.26
2018-02-16T05:38:08.368Z,1016.26
2018-02-16T05:39:08.358Z,1016.25
2018-02-16T05:40:08.322Z,1016.29
2018-02-16T05:41:08.297Z,1016.27
2018-02-16T05:42:08.268Z,1016.27
2018-02-16T05:43:08.240Z,1016.28
2018-02-16T05:44:08.232Z,1016.31
2018-02-16T05:45:08.192Z,1016.32
2018-02-16T05:46:08.186Z,1016.30
2018-02-16T05:47:08.150Z,1016.31
2018-02-16T05:48:08.113Z,1016.30
2018-02-16T05:49:08.092Z,1016.31
2018-02-16T05:50:08.062Z,1016.35
2018-02-16T05:51:08.040Z,1016.34
2018-02-16T05:52:08.015Z,1016.37
2018-02-16T05:53:07.988Z,1016.41
2018-02-16T05:54:07.963Z,1016.38
2018-02-16T05:55:07.938Z,1016.39
2018-02-16T05:56:07.915Z,1016.41
2018-02-16T05:57:07.888Z,1016.40
2018-02-16T05:58:07.859Z,1016.46
2018-02-16T05:59:07.838Z,1016.49
2018-02-16T06:00:07.814Z,1016.50
2018-02-16T06:01:07.788Z,1016.50
2018-02-16T06:02:07.757Z,1016.54
2018-02-16T06:03:07.730Z,1016.54
2018-02-16T06:04:07.706Z,1016.55
2018-02-16T06:05:07.705Z,1016.61
2018-02-16T06:06:07.666Z,1016.61
2018-02-16T06:07:07.632Z,1016.61
2018-02-16T06:08:07.625Z,1016.65
2018-02-16T06:09:07.582Z,1016.69
2018-02-16T06:10:07.564Z,1016.66
2018-02-16T06:11:07.548Z,1016.70
2018-02-16T06:12:07.507Z,1016.72
2018-02-16T06:13:07.481Z,1016.70
2018-02-16T06:14:07.457Z,1016.69
2018-02-16T06:15:07.428Z,1016.75
2018-02-16T06:16:07.417Z,1016.70
2018-02-16T06:17:07.378Z,1016.71
2018-02-16T06:18:07.362Z,1016.66
2018-02-16T06:19:07.324Z,1016.68
2018-02-16T06:20:07.308Z,1016.71
2018-02-16T06:21:07.280Z,1016.73
2018-02-16T06:22:07.254Z,1016.75
2018-02-16T06:23:07.232Z,1016.77
2018-02-16T06:24:07.201Z,1016.78
2018-02-16T06:25:07.218Z,1016.76
2018-02-16T06:26:07.152Z,1016.81
2018-02-16T06:27:07.130Z,1016.79
2018-02-16T06:28:07.100Z,1016.81
2018-02-16T06:29:07.076Z,1016.82
2018-02-16T06:30:07.051Z,1016.82
2018-02-16T06:31:07.024Z,1016.82
2018-02-16T06:32:07.000Z,1016.83
2018-02-16T06:33:06.987Z,1016.84
2018-02-16T06:34:06.952Z,1016.82
2018-02-16T06:35:06.920Z,1016.82
2018-02-16T06:36:06.895Z,1016.83
2018-02-16T06:37:06.883Z,1016.89
2018-02-16T06:38:06.849Z,1016.92
2018-02-16T06:39:06.828Z,1016.95
2018-02-16T06:40:06.797Z,1017.00
2018-02-16T06:41:06.770Z,1017.00
2018-02-16T06:42:06.745Z,1017.03
2018-02-16T06:43:06.720Z,1017.06
2018-02-16T06:44:06.696Z,1017.09
2018-02-16T06:45:06.670Z,1017.07
2018-02-16T06:46:06.646Z,1017.07
2018-02-16T06:47:06.633Z,1017.08
2018-02-16T06:48:06.596Z,1017.09
2018-02-16T06:49:06.566Z,1017.14
2018-02-16T06:50:06.543Z,1017.19
2018-02-16T06:51:06.526Z,1017.19
2018-02-16T06:52:06.489Z,1017.19
2018-02-16T06:53:06.470Z,1017.20
2018-02-16T06:54:06.451Z,1017.20
2018-02-16T06:55:06.428Z,1017.21
2018-02-16T06:56:06.385Z,1017.23
2018-02-16T06:57:06.392Z,1017.27
2018-02-16T06:58:06.343Z,1017.30
2018-02-16T06:59:06.318Z,1017.30
2018-02-16T07:00:06.287Z,1017.33
2018-02-16T07:01:06.260Z,1017.41
2018-02-16T07:02:06.240Z,1017.45
2018-02-16T07:03:06.214Z,1017.46
2018-02-16T07:04:06.188Z,1017.43
2018-02-16T07:05:06.162Z,1017.43
2018-02-16T07:06:06.145Z,1017.43
2018-02-16T07:07:06.114Z,1017.46
2018-02-16T07:08:06.081Z,1017.48
2018-02-16T07:09:06.060Z,1017.45
2018-02-16T07:10:06.037Z,1017.44
2018-02-16T07:11:06.025Z,1017.53
2018-02-16T07:12:05.992Z,1017.53
2018-02-16T07:13:05.956Z,1017.55
2018-02-16T07:14:05.956Z,1017.52
2018-02-16T07:15:05.909Z,1017.55
2018-02-16T07:16:05.881Z,1017.53
2018-02-16T07:17:05.853Z,1017.55
2018-02-16T07:18:05.830Z,1017.57
2018-02-16T07:19:05.812Z,1017.53
2018-02-16T07:20:05.781Z,1017.51
2018-02-16T07:21:05.774Z,1017.55
2018-02-16T07:22:05.737Z,1017.55
2018-02-16T07:23:05.726Z,1017.59
2018-02-16T07:24:05.673Z,1017.62
2018-02-16T07:25:05.691Z,1017.56
2018-02-16T07:26:05.624Z,1017.59
2018-02-16T07:27:05.602Z,1017.63
2018-02-16T07:28:05.581Z,1017.67
2018-02-16T07:29:05.558Z,1017.68
2018-02-16T07:30:05.529Z,1017.71
2018-02-16T07:31:05.515Z,1017.75
2018-02-16T07:32:05.493Z,1017.74
2018-02-16T07:33:05.451Z,1017.75
2018-02-16T07:34:05.426Z,1017.79
2018-02-16T07:35:05.411Z,1017.80
2018-02-16T07:36:05.374Z,1017.80
2018-02-16T07:37:05.347Z,1017.78
2018-02-16T07:38:05.329Z,1017.82
2018-02-16T07:39:05.298Z,1017.76
2018-02-16T07:40:05.275Z,1017.77
2018-02-16T07:41:05.247Z,1017.82
2018-02-16T07:42:05.222Z,1017.82
2018-02-16T07:43:05.199Z,1017.81
2018-02-16T07:44:05.170Z,1017.84
2018-02-16T07:45:05.141Z,1017.85
2018-02-16T07:46:05.120Z,1017.88
2018-02-16T07:47:05.099Z,1017.95
2018-02-16T07:48:05.074Z,1017.96
2018-02-16T07:49:05.045Z,1017.93
2018-02-16T07:50:05.113Z,1017.95
2018-02-16T07:51:05.085Z,1017.94
2018-02-16T07:52:04.965Z,1017.96
2018-02-16T07:53:04.944Z,1018.01
2018-02-16T07:54:04.916Z,1017.99
2018-02-16T07:55:04.893Z,1018.01
2018-02-16T07:56:04.869Z,1018.01
2018-02-16T07:57:04.847Z,1018.04
2018-02-16T07:58:04.818Z,1018.07
2018-02-16T07:59:04.796Z,1018.03
2018-02-16T08:00:04.766Z,1018.07
2018-02-16T08:01:04.740Z,1018.06
2018-02-16T08:02:04.724Z,1018.06
2018-02-16T08:03:04.691Z,1018.06
2018-02-16T08:04:04.666Z,1018.04
2018-02-16T08:05:04.642Z,1018.10
2018-02-16T08:06:04.614Z,1018.12
2018-02-16T08:07:04.586Z,1018.14
2018-02-16T08:08:04.565Z,1018.18
2018-02-16T08:09:04.536Z,1018.12
2018-02-16T08:10:04.525Z,1018.15
2018-02-16T08:11:04.488Z,1018.13
2018-02-16T08:12:04.508Z,1018.16
2018-02-16T08:13:04.454Z,1018.19
2018-02-16T08:14:04.408Z,1018.16
2018-02-16T08:15:04.768Z,1018.16
2018-02-16T08:18:42.924Z,1018.26
2018-02-16T08:19:42.890Z,1018.28
2018-02-16T08:20:43.027Z,1018.30
2018-02-16T08:21:42.854Z,1018.36
2018-02-16T08:22:42.817Z,1018.35
2018-02-16T08:23:43.818Z,1018.36
2018-02-16T08:24:42.750Z,1018.40
2018-02-16T08:25:42.797Z,1018.38
2018-02-16T08:26:42.718Z,1018.41
2018-02-16T08:27:42.673Z,1018.43
2018-02-16T08:28:42.648Z,1018.47
2018-02-16T08:29:42.628Z,1018.52
2018-02-16T08:30:42.607Z,1018.44
2018-02-16T08:31:42.629Z,1018.53
2018-02-16T08:32:42.557Z,1018.53
2018-02-16T08:33:42.563Z,1018.50
2018-02-16T08:34:42.513Z,1018.51
2018-02-16T08:35:42.471Z,1018.51
2018-02-16T08:36:42.471Z,1018.47
2018-02-16T08:37:42.420Z,1018.54
2018-02-16T08:38:42.486Z,1018.56
2018-02-16T08:39:42.363Z,1018.56
2018-02-16T08:40:42.347Z,1018.56
2018-02-16T08:41:42.312Z,1018.58
2018-02-16T08:42:42.304Z,1018.59
2018-02-16T08:43:42.269Z,1018.57
2018-02-16T08:44:42.235Z,1018.59
2018-02-16T08:45:42.225Z,1018.63
2018-02-16T08:46:42.197Z,1018.63
2018-02-16T08:47:42.160Z,1018.66
2018-02-16T08:48:42.136Z,1018.66
2018-02-16T08:49:42.120Z,1018.69
2018-02-16T08:50:42.071Z,1018.73
2018-02-16T08:51:42.070Z,1018.74
2018-02-16T08:52:42.070Z,1018.72
2018-02-16T08:53:42.005Z,1018.79
2018-02-16T08:54:41.980Z,1018.80
2018-02-16T08:55:41.940Z,1018.76
2018-02-16T08:56:41.914Z,1018.78
2018-02-16T08:57:41.894Z,1018.83
2018-02-16T08:58:41.871Z,1018.86
2018-02-16T08:59:41.846Z,1018.85
2018-02-16T09:00:41.819Z,1018.86
2018-02-16T09:01:41.783Z,1018.84
2018-02-16T09:02:41.757Z,1018.86
2018-02-16T09:03:41.730Z,1018.85
2018-02-16T09:04:41.737Z,1018.87
2018-02-16T09:05:41.680Z,1018.88
2018-02-16T09:06:41.737Z,1018.89
2018-02-16T09:07:41.626Z,1018.90
2018-02-16T09:08:41.624Z,1018.85
2018-02-16T09:09:41.576Z,1018.87
2018-02-16T09:10:41.578Z,1018.87
2018-02-16T09:11:41.524Z,1018.92
2018-02-16T09:12:41.527Z,1018.95
2018-02-16T09:13:41.466Z,1018.98
2018-02-16T09:14:41.447Z,1018.95
2018-02-16T09:15:41.408Z,1018.97
2018-02-16T09:16:41.406Z,1018.99
2018-02-16T10:22:41.575Z,1019.97
2018-02-16T10:23:44.671Z,1020.04
2018-02-16T10:24:39.686Z,1020.03
2018-02-16T10:25:41.714Z,1020.05
2018-02-16T10:26:39.661Z,1020.06
2018-02-16T10:27:44.608Z,1020.10
2018-02-16T10:28:39.603Z,1020.08
2018-02-16T10:29:52.101Z,1020.04
2018-02-16T10:30:39.530Z,1020.09
2018-02-16T10:31:39.605Z,1020.09
2018-02-16T10:32:39.479Z,1020.13
2018-02-16T10:33:39.442Z,1020.10
2018-02-16T10:34:39.417Z,1020.12
2018-02-16T10:35:39.444Z,1020.09
2018-02-16T10:36:39.359Z,1020.12
2018-02-16T10:37:41.385Z,1020.16
2018-02-16T10:38:39.369Z,1020.08
2018-02-16T10:39:39.349Z,1020.08
2018-02-16T10:40:39.268Z,1020.09
2018-02-16T10:41:39.255Z,1020.05
2018-02-16T10:42:39.203Z,1020.07
2018-02-16T10:43:39.188Z,1020.08
2018-02-16T10:44:39.146Z,1020.12
2018-02-16T10:46:29.092Z,1020.15
2018-02-16T10:47:28.974Z,1020.15
2018-02-16T10:48:28.949Z,1020.12
2018-02-16T10:49:28.929Z,1020.12
2018-02-16T10:50:28.899Z,1020.13
2018-02-16T10:51:28.863Z,1020.09
2018-02-16T10:52:28.836Z,1020.12
2018-02-16T10:53:28.836Z,1020.15
2018-02-16T10:54:28.784Z,1020.14
2018-02-16T10:55:28.780Z,1020.13
2018-02-16T10:56:28.731Z,1020.15
2018-02-16T10:57:28.802Z,1020.11
2018-02-16T10:58:28.726Z,1020.12
2018-02-16T10:59:28.668Z,1020.13
2018-02-16T11:00:28.629Z,1020.16
2018-02-16T11:01:28.603Z,1020.08
2018-02-16T11:02:28.592Z,1020.07
2018-02-16T11:03:29.640Z,1020.07
2018-02-16T11:04:28.516Z,1020.10
2018-02-16T11:05:29.552Z,1020.11
2018-02-16T11:06:28.460Z,1020.14
2018-02-16T11:07:29.565Z,1020.17
2018-02-16T11:08:28.411Z,1020.11
2018-02-16T11:09:28.450Z,1020.15
2018-02-16T11:10:28.363Z,1020.17
2018-02-16T11:11:28.378Z,1020.18
2018-02-16T11:12:29.393Z,1020.13
2018-02-16T11:13:28.274Z,1020.09
2018-02-16T11:14:30.341Z,1020.11
2018-02-16T11:15:28.233Z,1020.16
2018-02-16T11:16:33.006Z,1020.16
2018-02-16T11:17:28.182Z,1020.17
2018-02-16T11:18:49.166Z,1020.20
2018-02-16T11:19:28.136Z,1020.27
2018-02-16T11:20:28.109Z,1020.25
2018-02-16T11:21:28.136Z,1020.20
2018-02-16T11:22:28.049Z,1020.25
2018-02-16T11:23:28.022Z,1020.24
2018-02-16T11:24:28.046Z,1020.22
2018-02-16T11:25:27.995Z,1020.22
2018-02-16T11:26:28.058Z,1020.22
2018-02-16T11:27:27.926Z,1020.22
2018-02-16T11:28:28.998Z,1020.19
2018-02-16T11:29:27.864Z,1020.21
2018-02-16T11:30:34.533Z,1020.26
2018-02-16T11:31:27.822Z,1020.26
2018-02-16T11:32:27.898Z,1020.26
2018-02-16T11:33:27.771Z,1020.26
2018-02-16T11:34:27.802Z,1020.28
2018-02-16T11:35:27.717Z,1020.28
2018-02-16T11:36:27.728Z,1020.32
2018-02-16T11:37:27.670Z,1020.26
2018-02-16T11:38:27.733Z,1020.26
2018-02-16T11:39:27.643Z,1020.24
2018-02-16T11:40:27.645Z,1020.30
2018-02-16T11:41:27.567Z,1020.25
2018-02-16T11:42:28.580Z,1020.29
2018-02-16T11:43:27.522Z,1020.26
2018-02-16T11:44:27.491Z,1020.25
2018-02-16T11:45:27.518Z,1020.27
2018-02-16T11:46:27.445Z,1020.29
2018-02-16T11:47:27.416Z,1020.27
2018-02-16T11:48:42.038Z,1020.28
2018-02-16T11:49:27.371Z,1020.23
2018-02-16T11:50:27.434Z,1020.21
2018-02-16T11:51:27.297Z,1020.30
2018-02-16T11:52:27.365Z,1020.32
2018-02-16T11:53:27.249Z,1020.29
2018-02-16T11:54:39.105Z,1020.32
2018-02-16T11:55:27.203Z,1020.27
2018-02-16T11:56:42.090Z,1020.31
2018-02-16T11:57:27.166Z,1020.29
2018-02-16T11:58:27.155Z,1020.32
2018-02-16T11:59:27.113Z,1020.28
2018-02-16T12:00:27.077Z,1020.27
2018-02-16T12:01:27.069Z,1020.31
2018-02-16T12:02:27.029Z,1020.37
2018-02-16T12:03:27.060Z,1020.35
2018-02-16T12:04:26.984Z,1020.39
2018-02-16T12:05:26.968Z,1020.41
2018-02-16T12:06:26.928Z,1020.41
2018-02-16T12:07:26.983Z,1020.39
2018-02-16T12:08:26.883Z,1020.39
2018-02-16T12:09:26.893Z,1020.40
2018-02-16T12:10:26.835Z,1020.39
2018-02-16T12:11:26.803Z,1020.42
2018-02-16T12:12:26.782Z,1020.46
2018-02-16T12:13:26.813Z,1020.46
2018-02-16T12:14:26.760Z,1020.44
2018-02-16T12:15:31.554Z,1020.39
2018-02-16T12:16:26.685Z,1020.39
2018-02-16T12:17:27.767Z,1020.46
2018-02-16T12:18:26.637Z,1020.42
2018-02-16T12:19:26.645Z,1020.42
2018-02-16T12:20:26.576Z,1020.40
2018-02-16T12:21:26.660Z,1020.39
2018-02-16T12:22:26.539Z,1020.40
2018-02-16T12:23:26.565Z,1020.43
2018-02-16T12:24:26.513Z,1020.46
2018-02-16T12:25:26.475Z,1020.48
2018-02-16T12:26:26.470Z,1020.47
2018-02-16T12:27:26.491Z,1020.45
2018-02-16T12:28:26.397Z,1020.45
2018-02-16T12:29:43.091Z,1020.38
2018-02-16T12:30:26.367Z,1020.41
2018-02-16T12:31:28.363Z,1020.48
2018-02-16T12:32:26.292Z,1020.43
2018-02-16T12:33:26.335Z,1020.41
2018-02-16T12:34:26.221Z,1020.49
2018-02-16T12:35:26.183Z,1020.47
2018-02-16T12:36:26.172Z,1020.44
2018-02-16T12:37:26.245Z,1020.49
2018-02-16T12:38:26.115Z,1020.48
2018-02-16T12:39:26.157Z,1020.46
2018-02-16T12:40:26.065Z,1020.45
2018-02-16T12:41:26.077Z,1020.44
2018-02-16T12:42:26.015Z,1020.42
2018-02-16T12:43:26.080Z,1020.47
2018-02-16T12:44:25.956Z,1020.45
2018-02-16T12:45:25.935Z,1020.43
2018-02-16T12:46:25.904Z,1020.52
2018-02-16T12:47:25.877Z,1020.49
2018-02-16T12:48:25.853Z,1020.49
2018-02-16T12:49:25.832Z,1020.52
2018-02-16T12:50:25.816Z,1020.49
2018-02-16T12:51:25.836Z,1020.50
2018-02-16T12:52:25.751Z,1020.48
2018-02-16T12:53:25.734Z,1020.52
2018-02-16T12:54:25.699Z,1020.52
2018-02-16T12:55:25.672Z,1020.51
2018-02-16T12:56:25.659Z,1020.56
2018-02-16T12:57:25.622Z,1020.51
2018-02-16T12:58:25.673Z,1020.52
2018-02-16T12:59:25.572Z,1020.53
2018-02-16T13:00:25.541Z,1020.54
2018-02-16T13:01:25.523Z,1020.52
2018-02-16T13:02:25.491Z,1020.56
2018-02-16T13:03:25.467Z,1020.53
2018-02-16T13:04:25.445Z,1020.54
2018-02-16T13:05:26.573Z,1020.52
2018-02-16T13:06:25.386Z,1020.50
2018-02-16T13:07:25.432Z,1020.50
2018-02-16T13:08:25.332Z,1020.53
2018-02-16T13:09:25.342Z,1020.51
2018-02-16T13:10:25.295Z,1020.53
2018-02-16T13:11:25.353Z,1020.57
2018-02-16T13:12:25.250Z,1020.54
2018-02-16T13:13:25.207Z,1020.58